Time;durP1;ratioP1;P1;durP2;ratioP2;P2;SDS_P1;SDS_P2;PMS_P1;PMS_P2;Temp;Humidity;BMP_temperature;BMP_pressure;BME280_temperature;BME280_humidity;BME280_pressure;Samples;Min_cycle;Max_cycle;Signal;HPM_P1;HPM_P2
2023/05/27 00:02:17;;;;;;;;;;;10.50;53.90;;;;;;5053969;28;20011;-64
2023/05/27 00:04:43;;;;;;;;;;;10.50;53.90;;;;;;5052978;28;19924;-65
2023/05/27 00:07:09;;;;;;;;;;;10.50;54.00;;;;;;5053915;28;19982;-66
2023/05/27 00:09:35;;;;;;;;;;;10.40;53.90;;;;;;5053514;28;19916;-65
2023/05/27 00:12:00;;;;;;;;;;;10.40;54.00;;;;;;5052949;28;20549;-65
2023/05/27 00:14:25;;;;;;;;;;;10.30;54.10;;;;;;5053376;28;19967;-65
2023/05/27 00:16:51;;;;;;;;;;;10.30;54.30;;;;;;5053602;28;19939;-64
2023/05/27 00:19:17;;;;;;;;;;;10.30;54.30;;;;;;5035519;28;20368;-65
2023/05/27 00:21:42;;;;;;;;;;;10.30;54.30;;;;;;5053436;28;20280;-65
2023/05/27 00:24:08;;;;;;;;;;;10.20;54.30;;;;;;5052542;28;19913;-65
2023/05/27 00:26:33;;;;;;;;;;;10.20;54.40;;;;;;5048566;28;20352;-65
2023/05/27 00:28:59;;;;;;;;;;;10.20;54.60;;;;;;5053752;28;20291;-64
2023/05/27 00:31:25;;;;;;;;;;;10.20;54.60;;;;;;5062353;28;20272;-65
2023/05/27 00:33:50;;;;;;;;;;;10.20;54.60;;;;;;5052993;28;19936;-64
2023/05/27 00:36:16;;;;;;;;;;;10.20;54.60;;;;;;5071774;28;19917;-65
2023/05/27 00:38:42;;;;;;;;;;;10.20;54.50;;;;;;5053034;28;19919;-65
2023/05/27 00:41:10;;;;;;;;;;;10.10;54.70;;;;;;5052527;28;20343;-65
2023/05/27 00:43:35;;;;;;;;;;;10.10;54.60;;;;;;5052607;28;19917;-65
2023/05/27 00:46:00;;;;;;;;;;;10.00;54.60;;;;;;5052869;28;19917;-65
2023/05/27 00:48:26;;;;;;;;;;;10.00;54.80;;;;;;5052545;28;20352;-65
2023/05/27 00:50:51;;;;;;;;;;;10.00;54.90;;;;;;5053053;28;19982;-65
2023/05/27 00:53:17;;;;;;;;;;;10.00;55.00;;;;;;5052170;28;19913;-65
2023/05/27 00:55:43;;;;;;;;;;;10.00;55.10;;;;;;5068337;28;19916;-65
2023/05/27 00:58:09;;;;;;;;;;;9.90;55.10;;;;;;5072537;28;19908;-65
2023/05/27 01:00:37;;;;;;;;;;;9.90;55.10;;;;;;5072387;28;19909;-65
2023/05/27 01:03:03;;;;;;;;;;;9.90;55.20;;;;;;5072284;28;19931;-65
2023/05/27 01:05:29;;;;;;;;;;;9.90;55.10;;;;;;5057420;28;20401;-65
2023/05/27 01:08:11;;;;;;;;;;;9.80;55.10;;;;;;5052014;28;19913;-65
2023/05/27 01:10:45;;;;;;;;;;;9.80;55.10;;;;;;5052580;28;20551;-65
2023/05/27 01:13:17;;;;;;;;;;;9.80;55.10;;;;;;5052443;28;19908;-65
2023/05/27 01:15:43;;;;;;;;;;;9.80;55.30;;;;;;5052453;28;19924;-66
2023/05/27 01:18:09;;;;;;;;;;;9.70;55.40;;;;;;5051880;28;19913;-66
2023/05/27 01:20:40;;;;;;;;;;;9.70;55.30;;;;;;5054057;28;20387;-65
2023/05/27 01:23:07;;;;;;;;;;;9.70;55.40;;;;;;5052351;28;19916;-66
2023/05/27 01:25:33;;;;;;;;;;;9.70;55.70;;;;;;5051950;28;19913;-65
2023/05/27 01:27:58;;;;;;;;;;;9.70;55.60;;;;;;5051811;28;19917;-65
2023/05/27 01:30:24;;;;;;;;;;;9.70;55.60;;;;;;5052040;28;20368;-65
2023/05/27 01:33:00;;;;;;;;;;;9.70;55.70;;;;;;5052108;28;19909;-67
2023/05/27 01:35:42;;;;;;;;;;;9.70;55.60;;;;;;5051885;28;19909;-65
2023/05/27 01:38:12;;;;;;;;;;;9.60;55.50;;;;;;5051961;28;20387;-65
2023/05/27 01:40:40;;;;;;;;;;;9.60;55.60;;;;;;5051507;28;19909;-65
2023/05/27 01:43:07;;;;;;;;;;;9.50;55.60;;;;;;5051183;28;20329;-64
2023/05/27 01:45:33;;;;;;;;;;;9.60;55.70;;;;;;5051336;28;19951;-65
2023/05/27 01:47:58;;;;;;;;;;;9.50;55.60;;;;;;5051408;28;19944;-64
2023/05/27 01:50:24;;;;;;;;;;;9.50;55.70;;;;;;5051464;28;20253;-65
2023/05/27 01:52:49;;;;;;;;;;;9.50;55.80;;;;;;5051807;28;20368;-66
2023/05/27 01:55:17;;;;;;;;;;;9.50;55.80;;;;;;5063488;28;19909;-64
2023/05/27 01:57:42;;;;;;;;;;;9.40;55.80;;;;;;5072030;28;19924;-64
2023/05/27 02:00:11;;;;;;;;;;;9.40;55.80;;;;;;5071698;28;19913;-64
2023/05/27 02:02:36;;;;;;;;;;;9.40;55.90;;;;;;5071685;28;19913;-65
2023/05/27 02:05:02;;;;;;;;;;;9.40;56.20;;;;;;5060908;28;20295;-64
2023/05/27 02:07:28;;;;;;;;;;;9.40;56.10;;;;;;5051547;28;19924;-64
2023/05/27 02:09:53;;;;;;;;;;;9.30;56.10;;;;;;5051500;28;20354;-65
2023/05/27 02:12:19;;;;;;;;;;;9.30;56.20;;;;;;5051762;28;19943;-65
2023/05/27 02:14:44;;;;;;;;;;;9.30;56.10;;;;;;5051402;28;19908;-64
2023/05/27 02:17:10;;;;;;;;;;;9.30;56.00;;;;;;5050794;28;20030;-64
2023/05/27 02:19:36;;;;;;;;;;;9.30;56.00;;;;;;5051150;28;19971;-66
2023/05/27 02:22:01;;;;;;;;;;;9.30;56.00;;;;;;5051688;28;19917;-68
2023/05/27 02:24:27;;;;;;;;;;;9.20;55.90;;;;;;5051721;28;19917;-64
2023/05/27 02:26:52;;;;;;;;;;;9.20;56.00;;;;;;5051712;28;19913;-65
2023/05/27 02:29:18;;;;;;;;;;;9.20;56.10;;;;;;5051458;28;20343;-64
2023/05/27 02:31:43;;;;;;;;;;;9.20;56.20;;;;;;5050117;28;20494;-64
2023/05/27 02:34:08;;;;;;;;;;;9.20;56.30;;;;;;5051374;28;19967;-65
2023/05/27 02:36:34;;;;;;;;;;;9.20;56.20;;;;;;5051632;28;19924;-65
2023/05/27 02:39:00;;;;;;;;;;;9.10;56.20;;;;;;5051517;28;19932;-64
2023/05/27 02:41:26;;;;;;;;;;;9.10;56.10;;;;;;5051160;28;20377;-64
2023/05/27 02:43:51;;;;;;;;;;;9.00;56.10;;;;;;5051173;28;20368;-64
2023/05/27 02:46:17;;;;;;;;;;;9.00;56.40;;;;;;5051398;28;20046;-65
2023/05/27 02:48:42;;;;;;;;;;;9.00;56.30;;;;;;5051178;28;19909;-64
2023/05/27 02:51:08;;;;;;;;;;;9.00;56.30;;;;;;5033467;28;19921;-64
2023/05/27 02:53:33;;;;;;;;;;;9.00;56.20;;;;;;5033186;28;19913;-65
2023/05/27 02:55:59;;;;;;;;;;;9.00;56.20;;;;;;5070631;28;20345;-64
2023/05/27 02:58:24;;;;;;;;;;;9.00;56.10;;;;;;5074724;28;19988;-64
2023/05/27 03:00:49;;;;;;;;;;;8.90;56.20;;;;;;5075074;28;19920;-64
2023/05/27 03:03:15;;;;;;;;;;;8.90;56.40;;;;;;5074707;28;20539;-65
2023/05/27 03:05:40;;;;;;;;;;;9.00;56.90;;;;;;5055167;28;19913;-63
2023/05/27 03:08:06;;;;;;;;;;;9.00;57.00;;;;;;5054412;28;19913;-64
2023/05/27 03:10:34;;;;;;;;;;;9.00;56.90;;;;;;5054475;28;19913;-64
2023/05/27 03:13:00;;;;;;;;;;;9.00;57.00;;;;;;5054597;28;20418;-65
2023/05/27 03:15:25;;;;;;;;;;;9.00;57.10;;;;;;5054411;28;19913;-65
2023/05/27 03:17:51;;;;;;;;;;;9.00;57.50;;;;;;5054456;28;19913;-64
2023/05/27 03:20:18;;;;;;;;;;;9.00;57.70;;;;;;5036675;28;20383;-65
2023/05/27 03:22:44;;;;;;;;;;;9.00;57.50;;;;;;5069742;28;19960;-64
2023/05/27 03:25:09;;;;;;;;;;;9.00;57.30;;;;;;5054228;28;20399;-65
2023/05/27 03:27:35;;;;;;;;;;;9.00;57.20;;;;;;5054508;28;19917;-64
2023/05/27 03:30:02;;;;;;;;;;;8.90;57.20;;;;;;5054442;28;19908;-64
2023/05/27 03:32:28;;;;;;;;;;;8.90;57.20;;;;;;5054650;28;19916;-65
2023/05/27 03:34:53;;;;;;;;;;;8.90;57.20;;;;;;5054362;28;19908;-64
2023/05/27 03:37:18;;;;;;;;;;;9.00;57.20;;;;;;5054560;28;20319;-66
2023/05/27 03:39:44;;;;;;;;;;;9.00;57.20;;;;;;5054512;28;20383;-65
2023/05/27 03:42:09;;;;;;;;;;;9.00;57.30;;;;;;5054146;28;19927;-65
2023/05/27 03:44:35;;;;;;;;;;;9.10;57.40;;;;;;5054034;28;19916;-65
2023/05/27 03:47:04;;;;;;;;;;;9.20;57.50;;;;;;5053862;28;19924;-64
2023/05/27 03:49:30;;;;;;;;;;;9.30;57.60;;;;;;5053488;28;19913;-64
2023/05/27 03:51:55;;;;;;;;;;;9.30;57.70;;;;;;5054108;28;19943;-65
2023/05/27 03:54:20;;;;;;;;;;;9.40;57.70;;;;;;5058212;28;20261;-65
2023/05/27 03:56:46;;;;;;;;;;;9.50;57.80;;;;;;5074496;28;19916;-65
2023/05/27 03:59:11;;;;;;;;;;;9.70;57.90;;;;;;5073790;28;19909;-65
2023/05/27 04:01:37;;;;;;;;;;;9.80;58.10;;;;;;5074135;28;19916;-65
2023/05/27 04:04:03;;;;;;;;;;;10.00;58.30;;;;;;5073374;28;20280;-65
2023/05/27 04:06:28;;;;;;;;;;;10.20;58.40;;;;;;5073610;28;19925;-65
2023/05/27 04:08:54;;;;;;;;;;;10.30;58.60;;;;;;5073800;28;19908;-65
2023/05/27 04:11:20;;;;;;;;;;;10.50;58.60;;;;;;5059545;28;19916;-65
2023/05/27 04:13:46;;;;;;;;;;;10.70;58.70;;;;;;5054143;28;19915;-69
2023/05/27 04:16:12;;;;;;;;;;;11.00;58.80;;;;;;5053835;28;19928;-69
2023/05/27 04:18:37;;;;;;;;;;;11.20;58.90;;;;;;5053619;28;19908;-69
2023/05/27 04:21:04;;;;;;;;;;;11.50;59.00;;;;;;5058949;28;19956;-69
2023/05/27 04:23:29;;;;;;;;;;;11.80;59.10;;;;;;5057378;28;20366;-70
2023/05/27 04:25:55;;;;;;;;;;;12.10;59.10;;;;;;5052485;28;20032;-70
2023/05/27 04:28:21;;;;;;;;;;;12.40;59.10;;;;;;5053120;28;20307;-70
2023/05/27 04:30:48;;;;;;;;;;;12.70;59.10;;;;;;5053186;28;19916;-69
2023/05/27 04:33:17;;;;;;;;;;;12.90;59.20;;;;;;5053512;28;19916;-69
2023/05/27 04:35:43;;;;;;;;;;;13.30;59.30;;;;;;5053957;28;19925;-70
2023/05/27 04:38:16;;;;;;;;;;;13.60;59.30;;;;;;5053320;28;19999;-70
2023/05/27 04:40:42;;;;;;;;;;;14.00;59.40;;;;;;5053541;28;20280;-71
2023/05/27 04:43:12;;;;;;;;;;;14.30;59.50;;;;;;5053790;28;20368;-70
2023/05/27 04:45:37;;;;;;;;;;;14.70;59.50;;;;;;5055384;28;19968;-70
2023/05/27 04:48:03;;;;;;;;;;;15.00;59.60;;;;;;5054881;28;19913;-69
2023/05/27 04:50:28;;;;;;;;;;;15.40;59.70;;;;;;5053688;28;20338;-69
2023/05/27 04:52:54;;;;;;;;;;;15.80;59.80;;;;;;5053529;28;20321;-69
2023/05/27 04:55:20;;;;;;;;;;;16.20;59.70;;;;;;5065566;28;19912;-70
2023/05/27 04:57:46;;;;;;;;;;;16.60;59.60;;;;;;5055039;28;19923;-69
2023/05/27 05:02:39;;;;;;;;;;;17.30;59.20;;;;;;5052262;28;19958;-70
2023/05/27 05:05:06;;;;;;;;;;;17.80;58.90;;;;;;5052586;28;19944;-70
2023/05/27 05:07:32;;;;;;;;;;;18.10;58.60;;;;;;5053226;28;19913;-70
2023/05/27 05:09:57;;;;;;;;;;;18.50;58.00;;;;;;5053245;28;20011;-70
2023/05/27 05:12:23;;;;;;;;;;;18.80;57.10;;;;;;5053367;28;20000;-70
2023/05/27 05:14:49;;;;;;;;;;;19.10;56.90;;;;;;5053510;28;19917;-70
2023/05/27 05:17:14;;;;;;;;;;;19.40;56.60;;;;;;5053568;28;19913;-70
2023/05/27 05:19:40;;;;;;;;;;;19.80;56.10;;;;;;5052165;28;20351;-70
2023/05/27 05:22:05;;;;;;;;;;;20.10;54.90;;;;;;5068002;28;19973;-69
2023/05/27 05:24:30;;;;;;;;;;;20.40;54.00;;;;;;5057202;28;19921;-70
2023/05/27 05:26:56;;;;;;;;;;;20.80;53.50;;;;;;5052096;28;19917;-70
2023/05/27 05:29:21;;;;;;;;;;;21.20;52.40;;;;;;5051901;28;19917;-70
2023/05/27 05:31:47;;;;;;;;;;;21.60;52.10;;;;;;5052175;28;19909;-70
2023/05/27 05:34:12;;;;;;;;;;;22.00;50.90;;;;;;5052442;28;19917;-70
2023/05/27 05:36:37;;;;;;;;;;;22.30;48.60;;;;;;5051967;28;19924;-70
2023/05/27 05:39:03;;;;;;;;;;;22.50;47.40;;;;;;5051843;28;19936;-70
2023/05/27 05:41:29;;;;;;;;;;;22.80;47.50;;;;;;5051866;28;19935;-70
2023/05/27 05:43:54;;;;;;;;;;;23.20;46.60;;;;;;5052035;28;19929;-70
2023/05/27 05:46:21;;;;;;;;;;;23.50;44.60;;;;;;5050329;28;20330;-70
2023/05/27 05:48:47;;;;;;;;;;;23.70;43.00;;;;;;5051699;28;19912;-70
2023/05/27 05:51:12;;;;;;;;;;;23.90;42.90;;;;;;5051428;28;19916;-70
2023/05/27 05:53:38;;;;;;;;;;;24.20;42.40;;;;;;5048898;28;20346;-70
2023/05/27 05:56:03;;;;;;;;;;;24.60;42.00;;;;;;5051578;28;20368;-70
2023/05/27 05:58:29;;;;;;;;;;;24.90;41.00;;;;;;5049763;28;19921;-71
2023/05/27 06:00:54;;;;;;;;;;;25.30;41.00;;;;;;5046948;28;19940;-70
2023/05/27 06:03:20;;;;;;;;;;;25.70;40.00;;;;;;5048546;28;19952;-70
2023/05/27 06:05:45;;;;;;;;;;;26.00;38.70;;;;;;5051712;28;19913;-70
2023/05/27 06:08:11;;;;;;;;;;;26.20;37.50;;;;;;5052230;28;19919;-71
2023/05/27 06:10:36;;;;;;;;;;;26.50;36.90;;;;;;5051441;28;20063;-70
2023/05/27 06:13:02;;;;;;;;;;;26.80;36.60;;;;;;5048532;28;20054;-70
2023/05/27 06:15:27;;;;;;;;;;;27.10;35.60;;;;;;5051716;28;19920;-70
2023/05/27 06:17:53;;;;;;;;;;;27.20;34.90;;;;;;5051894;28;19913;-70
2023/05/27 06:20:19;;;;;;;;;;;27.40;34.10;;;;;;5050328;28;20376;-70
2023/05/27 06:22:46;;;;;;;;;;;27.60;33.40;;;;;;5048744;28;19962;-70
2023/05/27 06:25:12;;;;;;;;;;;27.70;33.20;;;;;;5051842;28;20287;-70
2023/05/27 06:27:37;;;;;;;;;;;27.80;32.90;;;;;;5050691;28;19920;-70
2023/05/27 06:30:03;;;;;;;;;;;28.20;33.00;;;;;;5051515;28;20035;-71
2023/05/27 06:32:29;;;;;;;;;;;28.40;32.40;;;;;;5052002;28;20451;-70
2023/05/27 06:34:54;;;;;;;;;;;28.70;32.20;;;;;;5024903;28;19918;-70
2023/05/27 06:37:20;;;;;;;;;;;29.00;31.90;;;;;;5052587;28;19908;-70
2023/05/27 06:39:45;;;;;;;;;;;29.30;31.20;;;;;;5055867;28;19912;-71
2023/05/27 06:42:10;;;;;;;;;;;29.50;31.30;;;;;;5052477;28;19925;-71
2023/05/27 06:44:36;;;;;;;;;;;29.80;30.90;;;;;;5056540;28;19921;-70
2023/05/27 06:47:02;;;;;;;;;;;30.00;30.20;;;;;;5056072;28;19916;-71
2023/05/27 06:49:27;;;;;;;;;;;30.20;29.80;;;;;;5056486;28;19936;-71
2023/05/27 06:51:53;;;;;;;;;;;30.40;29.30;;;;;;5056415;28;19913;-71
2023/05/27 06:54:18;;;;;;;;;;;30.70;29.20;;;;;;5041914;28;19919;-71
2023/05/27 06:56:44;;;;;;;;;;;31.00;29.40;;;;;;5077194;28;20371;-71
2023/05/27 06:59:09;;;;;;;;;;;31.30;28.50;;;;;;5064161;28;19913;-71
2023/05/27 07:01:35;;;;;;;;;;;31.50;28.50;;;;;;5042129;28;19917;-71
2023/05/27 07:04:00;;;;;;;;;;;31.80;27.90;;;;;;5056099;28;19924;-71
2023/05/27 07:06:26;;;;;;;;;;;32.10;27.70;;;;;;5055492;28;20336;-71
2023/05/27 07:08:51;;;;;;;;;;;32.30;27.60;;;;;;5058116;28;20395;-71
2023/05/27 07:11:17;;;;;;;;;;;32.60;27.00;;;;;;5056329;28;20265;-71
2023/05/27 07:13:42;;;;;;;;;;;32.80;27.00;;;;;;5055558;28;19959;-71
2023/05/27 07:16:08;;;;;;;;;;;33.10;26.60;;;;;;5057388;28;19966;-71
2023/05/27 07:18:34;;;;;;;;;;;33.20;26.10;;;;;;5053120;28;20268;-72
2023/05/27 07:20:59;;;;;;;;;;;33.40;26.10;;;;;;5047960;28;19925;-69
2023/05/27 07:23:25;;;;;;;;;;;33.70;26.00;;;;;;5042515;28;20262;-70
2023/05/27 07:25:53;;;;;;;;;;;33.90;25.50;;;;;;5035630;28;19917;-70
2023/05/27 07:28:18;;;;;;;;;;;34.10;25.50;;;;;;5035989;28;20000;-70
2023/05/27 07:30:44;;;;;;;;;;;34.40;25.30;;;;;;5049361;28;20402;-71
2023/05/27 07:33:10;;;;;;;;;;;34.40;24.90;;;;;;5050129;28;19964;-70
2023/05/27 07:35:36;;;;;;;;;;;34.50;24.70;;;;;;5045624;28;19913;-70
2023/05/27 07:38:02;;;;;;;;;;;34.70;24.50;;;;;;5037270;28;19967;-70
2023/05/27 07:40:28;;;;;;;;;;;34.80;23.90;;;;;;5040432;28;19913;-70
2023/05/27 07:42:53;;;;;;;;;;;35.00;24.00;;;;;;5045761;28;19932;-69
2023/05/27 07:45:18;;;;;;;;;;;35.20;24.20;;;;;;5048796;28;19921;-71
2023/05/27 07:47:46;;;;;;;;;;;35.50;23.90;;;;;;5036907;28;20348;-70
2023/05/27 07:50:11;;;;;;;;;;;35.70;23.30;;;;;;5041731;28;19921;-70
2023/05/27 07:52:39;;;;;;;;;;;35.70;23.10;;;;;;5048626;28;19920;-70
2023/05/27 07:55:05;;;;;;;;;;;35.70;22.70;;;;;;5058723;28;19916;-70
2023/05/27 07:57:31;;;;;;;;;;;35.80;22.30;;;;;;5059087;28;19919;-70
2023/05/27 07:59:56;;;;;;;;;;;35.80;22.40;;;;;;5056087;28;19917;-70
2023/05/27 08:02:22;;;;;;;;;;;36.00;22.50;;;;;;5055873;28;19915;-71
2023/05/27 08:04:47;;;;;;;;;;;36.20;22.40;;;;;;5054911;28;19916;-71
2023/05/27 08:07:13;;;;;;;;;;;36.10;21.90;;;;;;5059655;28;20400;-71
2023/05/27 08:09:38;;;;;;;;;;;35.90;21.60;;;;;;5046658;28;19921;-71
2023/05/27 08:12:05;;;;;;;;;;;35.90;22.10;;;;;;5040951;28;19970;-71
2023/05/27 08:14:31;;;;;;;;;;;36.00;22.00;;;;;;5053336;28;19913;-71
2023/05/27 08:16:56;;;;;;;;;;;36.20;21.70;;;;;;5059438;28;19956;-71
2023/05/27 08:19:21;;;;;;;;;;;36.10;21.40;;;;;;5060207;28;19921;-71
2023/05/27 08:21:47;;;;;;;;;;;36.10;21.30;;;;;;5061020;28;19949;-70
2023/05/27 08:24:14;;;;;;;;;;;36.20;20.70;;;;;;5057463;28;20478;-68
2023/05/27 08:26:39;;;;;;;;;;;36.10;20.80;;;;;;5044629;28;19917;-71
2023/05/27 08:29:05;;;;;;;;;;;36.20;20.30;;;;;;5047740;28;20007;-71
2023/05/27 08:31:31;;;;;;;;;;;36.10;20.40;;;;;;5059829;28;19917;-70
2023/05/27 08:33:56;;;;;;;;;;;36.20;20.20;;;;;;5056408;28;20016;-71
2023/05/27 08:36:22;;;;;;;;;;;36.20;20.50;;;;;;5058475;28;19917;-71
2023/05/27 08:38:47;;;;;;;;;;;36.40;20.30;;;;;;5060021;28;19917;-71
2023/05/27 08:41:13;;;;;;;;;;;36.50;19.70;;;;;;5061035;28;20360;-71
2023/05/27 08:43:39;;;;;;;;;;;36.50;19.30;;;;;;5056119;28;20328;-70
2023/05/27 08:46:05;;;;;;;;;;;36.30;18.50;;;;;;5058293;28;19919;-71
2023/05/27 08:48:31;;;;;;;;;;;35.80;18.20;;;;;;5057926;28;19913;-71
2023/05/27 08:50:56;;;;;;;;;;;35.40;18.50;;;;;;5055359;28;20265;-71
2023/05/27 08:53:22;;;;;;;;;;;35.10;18.70;;;;;;5050826;28;19919;-71
2023/05/27 08:55:51;;;;;;;;;;;34.80;19.30;;;;;;5059270;28;19948;-71
2023/05/27 08:58:16;;;;;;;;;;;35.00;19.70;;;;;;5055268;28;20005;-70
2023/05/27 09:00:42;;;;;;;;;;;35.10;19.80;;;;;;5054760;28;20352;-71
2023/05/27 09:03:08;;;;;;;;;;;35.20;20.10;;;;;;5050831;28;19936;-70
2023/05/27 09:05:34;;;;;;;;;;;35.50;19.90;;;;;;5055910;28;19970;-71
2023/05/27 09:07:59;;;;;;;;;;;35.80;19.90;;;;;;5058118;28;20372;-71
2023/05/27 09:10:34;;;;;;;;;;;36.10;19.60;;;;;;5058653;28;19920;-71
2023/05/27 09:13:00;;;;;;;;;;;36.00;19.60;;;;;;5055490;28;19948;-71
2023/05/27 09:15:26;;;;;;;;;;;36.10;19.80;;;;;;5056867;28;20343;-71
2023/05/27 09:17:51;;;;;;;;;;;36.10;19.60;;;;;;5058036;28;19917;-71
2023/05/27 09:20:23;;;;;;;;;;;36.20;19.90;;;;;;5056394;28;20395;-71
2023/05/27 09:22:49;;;;;;;;;;;36.30;19.80;;;;;;5048681;28;19920;-71
2023/05/27 09:25:14;;;;;;;;;;;36.30;19.70;;;;;;5055533;28;19924;-71
2023/05/27 09:27:42;;;;;;;;;;;36.30;19.60;;;;;;5057348;28;19920;-70
2023/05/27 09:30:08;;;;;;;;;;;36.20;19.60;;;;;;5056411;28;20338;-71
2023/05/27 09:32:34;;;;;;;;;;;36.20;19.70;;;;;;5050880;28;19988;-70
2023/05/27 09:35:04;;;;;;;;;;;36.10;19.70;;;;;;5055345;28;20273;-71
2023/05/27 09:37:34;;;;;;;;;;;36.00;19.70;;;;;;5054202;28;19921;-71
2023/05/27 09:40:12;;;;;;;;;;;36.10;19.80;;;;;;5054816;28;19967;-71
2023/05/27 09:42:44;;;;;;;;;;;36.00;19.70;;;;;;5050518;28;20011;-71
2023/05/27 09:45:20;;;;;;;;;;;35.90;19.90;;;;;;5054988;28;19924;-71
2023/05/27 09:47:49;;;;;;;;;;;35.80;19.90;;;;;;5056943;28;19944;-71
2023/05/27 09:50:15;;;;;;;;;;;35.80;20.20;;;;;;5060270;28;20375;-71
2023/05/27 09:52:43;;;;;;;;;;;35.80;19.90;;;;;;5059159;28;19955;-71
2023/05/27 09:55:09;;;;;;;;;;;35.70;20.00;;;;;;5067159;28;19917;-71
2023/05/27 09:57:35;;;;;;;;;;;35.70;20.30;;;;;;5058888;28;19955;-70
2023/05/27 10:00:02;;;;;;;;;;;35.70;20.20;;;;;;5055715;28;19917;-70
2023/05/27 10:02:27;;;;;;;;;;;35.80;20.50;;;;;;5053475;28;20460;-69
2023/05/27 10:04:53;;;;;;;;;;;35.90;20.30;;;;;;5053903;28;19965;-69
2023/05/27 10:07:20;;;;;;;;;;;36.00;20.50;;;;;;5055598;28;19920;-70
2023/05/27 10:09:46;;;;;;;;;;;36.30;20.40;;;;;;5055686;28;19936;-70
2023/05/27 10:12:12;;;;;;;;;;;36.30;19.80;;;;;;5051552;28;20408;-70
2023/05/27 10:14:38;;;;;;;;;;;36.20;19.60;;;;;;5053307;28;19920;-69
2023/05/27 10:17:03;;;;;;;;;;;36.00;19.50;;;;;;5039656;28;19917;-69
2023/05/27 10:19:29;;;;;;;;;;;35.70;19.00;;;;;;5038660;28;19921;-69
2023/05/27 10:21:54;;;;;;;;;;;35.30;19.00;;;;;;5044175;28;19971;-69
2023/05/27 10:24:30;;;;;;;;;;;35.30;19.20;;;;;;5048844;28;19978;-69
2023/05/27 10:27:01;;;;;;;;;;;35.30;19.30;;;;;;5051434;28;20016;-70
2023/05/27 10:29:35;;;;;;;;;;;35.50;19.10;;;;;;5052347;28;20356;-70
2023/05/27 10:32:01;;;;;;;;;;;35.40;19.00;;;;;;5048185;28;20028;-70
2023/05/27 10:34:33;;;;;;;;;;;35.30;19.00;;;;;;5051670;28;20012;-70
2023/05/27 10:37:00;;;;;;;;;;;35.20;19.00;;;;;;5052132;28;20411;-70
2023/05/27 10:39:25;;;;;;;;;;;35.10;18.90;;;;;;5051128;28;19913;-70
2023/05/27 10:41:52;;;;;;;;;;;34.80;19.20;;;;;;5048129;28;19939;-70
2023/05/27 10:44:30;;;;;;;;;;;34.80;18.90;;;;;;5050436;28;20375;-69
2023/05/27 10:47:01;;;;;;;;;;;34.60;19.10;;;;;;5035328;28;19971;-70
2023/05/27 10:49:32;;;;;;;;;;;34.30;19.30;;;;;;5049954;28;20375;-70
2023/05/27 10:52:00;;;;;;;;;;;34.50;19.40;;;;;;5048814;28;20411;-70
2023/05/27 10:54:26;;;;;;;;;;;34.50;19.00;;;;;;5050804;28;20356;-70
2023/05/27 10:56:51;;;;;;;;;;;34.50;18.10;;;;;;5051571;28;20023;-70
2023/05/27 10:59:24;;;;;;;;;;;34.20;18.40;;;;;;5049755;28;19921;-69
2023/05/27 11:01:53;;;;;;;;;;;34.00;18.20;;;;;;5041101;28;19928;-69
2023/05/27 11:04:19;;;;;;;;;;;33.70;18.10;;;;;;5048624;28;20410;-70
2023/05/27 11:07:00;;;;;;;;;;;33.50;18.30;;;;;;5050199;28;19917;-69
2023/05/27 11:09:26;;;;;;;;;;;33.30;18.60;;;;;;5049037;28;20008;-70
2023/05/27 11:11:51;;;;;;;;;;;33.20;19.00;;;;;;5047414;28;20048;-69
2023/05/27 11:14:19;;;;;;;;;;;33.30;18.90;;;;;;5050962;28;19913;-69
2023/05/27 11:16:51;;;;;;;;;;;33.50;19.10;;;;;;5053140;28;19939;-70
2023/05/27 11:19:17;;;;;;;;;;;33.80;18.90;;;;;;5054515;28;19913;-70
2023/05/27 11:21:46;;;;;;;;;;;33.80;18.50;;;;;;5053030;28;19924;-69
2023/05/27 11:24:16;;;;;;;;;;;33.90;18.30;;;;;;5050819;28;19924;-70
2023/05/27 11:26:42;;;;;;;;;;;33.80;18.20;;;;;;5054073;28;20361;-69
2023/05/27 11:29:07;;;;;;;;;;;33.40;17.90;;;;;;5054634;28;20430;-69
2023/05/27 11:31:33;;;;;;;;;;;33.10;18.40;;;;;;5053877;28;19917;-69
2023/05/27 11:33:58;;;;;;;;;;;32.50;19.30;;;;;;5066383;28;19914;-68
2023/05/27 11:36:27;;;;;;;;;;;32.30;19.50;;;;;;5054576;28;19913;-69
2023/05/27 11:38:54;;;;;;;;;;;32.20;19.70;;;;;;5054622;28;19913;-71
2023/05/27 11:41:21;;;;;;;;;;;32.30;19.60;;;;;;5054447;28;19925;-68
2023/05/27 11:43:50;;;;;;;;;;;32.50;19.20;;;;;;5049783;28;19962;-69
2023/05/27 11:46:16;;;;;;;;;;;32.40;18.50;;;;;;5054143;28;20392;-69
2023/05/27 11:48:42;;;;;;;;;;;32.20;19.00;;;;;;5054388;28;19960;-69
2023/05/27 11:51:07;;;;;;;;;;;32.00;19.80;;;;;;5053516;28;19913;-69
2023/05/27 11:53:34;;;;;;;;;;;31.90;20.30;;;;;;5049718;28;19920;-69
2023/05/27 11:56:00;;;;;;;;;;;31.90;20.50;;;;;;5071735;28;20397;-69
2023/05/27 11:58:25;;;;;;;;;;;31.90;20.60;;;;;;5074153;28;19924;-69
2023/05/27 12:00:51;;;;;;;;;;;31.90;20.80;;;;;;5056560;28;20348;-69
2023/05/27 12:03:17;;;;;;;;;;;31.90;21.10;;;;;;5049464;28;20237;-69
2023/05/27 12:05:42;;;;;;;;;;;32.20;21.00;;;;;;5053864;28;19928;-69
2023/05/27 12:08:08;;;;;;;;;;;32.30;20.50;;;;;;5053906;28;19908;-69
2023/05/27 12:10:33;;;;;;;;;;;32.20;20.20;;;;;;5053559;28;19917;-69
2023/05/27 12:13:05;;;;;;;;;;;32.00;20.30;;;;;;5049317;28;19920;-69
2023/05/27 12:15:31;;;;;;;;;;;31.90;20.70;;;;;;5053452;28;20407;-69
2023/05/27 12:17:57;;;;;;;;;;;32.10;21.10;;;;;;5054003;28;19916;-69
2023/05/27 12:20:27;;;;;;;;;;;32.30;21.00;;;;;;5053599;28;19917;-69
2023/05/27 12:22:55;;;;;;;;;;;32.50;20.50;;;;;;5048928;28;19959;-69
2023/05/27 12:25:21;;;;;;;;;;;32.50;20.30;;;;;;5052762;28;19921;-69
2023/05/27 12:27:46;;;;;;;;;;;32.60;20.50;;;;;;5053664;28;20348;-69
2023/05/27 12:30:12;;;;;;;;;;;32.40;20.90;;;;;;5053263;28;19963;-69
2023/05/27 12:32:38;;;;;;;;;;;32.30;21.10;;;;;;5049555;28;19956;-69
2023/05/27 12:35:04;;;;;;;;;;;32.20;21.30;;;;;;5053045;28;19917;-69
2023/05/27 12:37:30;;;;;;;;;;;32.20;21.40;;;;;;5053470;28;20273;-69
2023/05/27 12:39:55;;;;;;;;;;;32.30;21.10;;;;;;5053067;28;19920;-68
2023/05/27 12:42:21;;;;;;;;;;;32.20;20.80;;;;;;5049181;28;19916;-69
2023/05/27 12:44:46;;;;;;;;;;;32.10;21.20;;;;;;5053037;28;19916;-69
2023/05/27 12:47:12;;;;;;;;;;;32.10;21.10;;;;;;5053052;28;19920;-68
2023/05/27 12:49:37;;;;;;;;;;;32.10;21.40;;;;;;5053584;28;20287;-68
2023/05/27 12:52:03;;;;;;;;;;;32.00;20.80;;;;;;5050345;28;19963;-68
2023/05/27 12:54:29;;;;;;;;;;;31.80;21.10;;;;;;5056902;28;19919;-68
2023/05/27 12:56:54;;;;;;;;;;;31.80;21.10;;;;;;5048803;28;19917;-68
2023/05/27 12:59:20;;;;;;;;;;;31.80;21.00;;;;;;5052891;28;20372;-69
2023/05/27 13:01:45;;;;;;;;;;;31.70;21.00;;;;;;5050630;28;20292;-68
2023/05/27 13:04:11;;;;;;;;;;;31.50;21.10;;;;;;5049130;28;20382;-68
2023/05/27 13:06:36;;;;;;;;;;;31.20;20.70;;;;;;5052969;28;20007;-68
2023/05/27 13:09:02;;;;;;;;;;;31.10;20.70;;;;;;5042678;28;20356;-68
2023/05/27 13:11:27;;;;;;;;;;;31.10;21.00;;;;;;5052399;28;19913;-69
2023/05/27 13:13:53;;;;;;;;;;;31.20;21.30;;;;;;5048022;28;19913;-68
2023/05/27 13:16:19;;;;;;;;;;;31.30;21.50;;;;;;5052692;28;19944;-68
2023/05/27 13:18:45;;;;;;;;;;;31.40;20.70;;;;;;5052816;28;19913;-68
2023/05/27 13:21:10;;;;;;;;;;;31.30;20.70;;;;;;5052315;28;20273;-68
2023/05/27 13:23:36;;;;;;;;;;;31.20;20.70;;;;;;5048018;28;20289;-68
2023/05/27 13:26:01;;;;;;;;;;;31.20;20.80;;;;;;5052047;28;20280;-68
2023/05/27 13:28:27;;;;;;;;;;;31.20;20.70;;;;;;5051789;28;19913;-68
2023/05/27 13:30:52;;;;;;;;;;;31.20;20.70;;;;;;5041331;28;19937;-68
2023/05/27 13:33:18;;;;;;;;;;;31.30;20.90;;;;;;5043502;28;19919;-68
2023/05/27 13:35:43;;;;;;;;;;;31.40;21.10;;;;;;5045864;28;19940;-68
2023/05/27 13:38:13;;;;;;;;;;;31.40;21.10;;;;;;5048732;28;19939;-69
2023/05/27 13:40:39;;;;;;;;;;;31.30;21.10;;;;;;5049105;28;19968;-68
2023/05/27 13:43:04;;;;;;;;;;;31.30;21.10;;;;;;5045233;28;19963;-69
2023/05/27 13:45:30;;;;;;;;;;;31.30;21.30;;;;;;5049364;28;19931;-68
2023/05/27 13:47:55;;;;;;;;;;;31.50;21.30;;;;;;5050796;28;19966;-68
2023/05/27 13:50:21;;;;;;;;;;;31.50;21.10;;;;;;5051361;28;19920;-69
2023/05/27 13:52:46;;;;;;;;;;;31.30;20.60;;;;;;5044689;28;20276;-69
2023/05/27 13:55:12;;;;;;;;;;;31.10;20.60;;;;;;5053893;28;20025;-70
2023/05/27 13:57:38;;;;;;;;;;;31.00;20.90;;;;;;5050778;28;19913;-69
2023/05/27 14:00:03;;;;;;;;;;;31.00;21.00;;;;;;5050786;28;20296;-70
2023/05/27 14:02:29;;;;;;;;;;;31.00;20.70;;;;;;5043447;28;19944;-70
2023/05/27 14:07:58;;;;;;;;;;;31.10;20.70;;;;;;5050747;28;19938;-69
2023/05/27 14:13:35;;;;;;;;;;;31.10;21.40;;;;;;5046114;28;20004;-69
2023/05/27 14:16:01;;;;;;;;;;;31.10;21.40;;;;;;5049700;28;19916;-69
2023/05/27 14:18:26;;;;;;;;;;;31.10;21.30;;;;;;5047103;28;19917;-69
2023/05/27 14:20:52;;;;;;;;;;;30.90;21.50;;;;;;5048349;28;19924;-69
2023/05/27 14:23:17;;;;;;;;;;;30.80;21.20;;;;;;5046470;28;19913;-69